• Join FlightAware (Why Join?)
  • Login
  • US Flag 
04:08AM EDT


 

Airport Tracker/Info


-or-


 

Live Flight TrackerFlight Track Log ✈ GGN7283 ✈ 05-Jan-2014 ✈ CYYZ - KSYR

Flight Track Log - Related Links

Times and Time Zones

All times are in EST time to prevent confusion due to time zone crossing. See the GGN7283 flight status page for this flight to view local times or setup timezone preferences in your user account.

Time Position Orientation Groundspeed Altitude Reporting Facility
EST Latitude Longitude Course Direction KTS MPH feet Rate Location/Type
10:44PM 43.6500 -79.6167 47° Northeast 10 12 600  Level Toronto Center
10:46PM 43.6833 -79.5667 47° Northeast 150 173 2,100 960 Climbing Toronto Center
10:47PM 43.6833 -79.5000 90° East 170 196 3,600 1,500 Climbing Toronto Center
10:48PM 43.6833 -79.4333 90° East 170 196 5,100 1,500 Climbing Toronto Center
10:49PM 43.6500 -79.3833 133° Southeast 170 196 6,700 1,440 Climbing Toronto Center
10:50PM 43.6167 -79.3167 125° Southeast 180 207 8,000 600 Climbing Toronto Center
10:51PM 43.5833 -79.2500 125° Southeast 220 253 8,000  Level Toronto Center
10:52PM 43.5500 -79.1667 119° Southeast 240 276 8,000 840 Level Toronto Center
10:53PM 43.5333 -79.0833 105° East 240 276 9,700 1,680 Climbing Toronto Center
10:54PM 43.5333 -79.0167 90° East 220 253 11,400 1,560 Climbing Toronto Center
10:55PM 43.5167 -78.9167 103° East 210 242 12,900 1,260 Climbing Toronto Center
10:56PM 43.5167 -78.8500 90° East 210 242 14,000 1,200 Climbing Toronto Center
10:57PM 43.5000 -78.7667 105° East 210 242 15,300 1,200 Climbing Toronto Center
10:58PM 43.5000 -78.6833 90° East 200 230 16,500 840 Climbing Toronto Center
10:59PM 43.4833 -78.6000 105° East 210 242 17,000 180 Climbing Toronto Center
11:00PM 43.4667 -78.5000 103° East 250 288 16,900 -60 Descending Toronto Center
11:01PM 43.4333 -78.4167 119° Southeast 260 299 16,900  Level Toronto Center
11:02PM 43.4333 -78.3167 90° East 260 299 16,900  Level Toronto Center
11:03PM 43.4167 -78.2167 103° East 260 299 16,900  Level Toronto Center
11:04PM 43.4000 -78.1167 103° East 260 299 16,900  Level Toronto Center
11:05PM 43.4000 -78.0333 90° East 260 299 16,900  Level Toronto Center
11:06PM 43.3833 -77.9333 103° East 260 299 16,900  Level Toronto Center
11:07PM 43.3667 -77.8500 105° East 260 299 16,900 -420 Level Toronto Center
11:08PM 43.3500 -77.7333 101° East 270 311 16,100 -1,200 Descending Toronto Center
11:09PM 43.3333 -77.6167 101° East 300 345 14,500 -1,500 Descending Toronto Center
11:10PM 43.3167 -77.5333 105° East 300 345 13,200 -1,260 Descending Toronto Center
11:11PM 43.3167 -77.4167 90° East 290 334 12,000 -1,140 Descending Toronto Center
11:12PM 43.2833 -77.3000 111° Southeast 290 334 11,000 -600 Descending Toronto Center
11:13PM 43.2667 -77.1833 101° East 280 322 10,900 -60 Descending Toronto Center
11:14PM 43.2500 -77.1000 105° East 260 299 10,900  Level Toronto Center
11:15PM 43.2500 -77.0000 90° East 250 288 10,900  Level Toronto Center
11:16PM 43.2333 -76.9167 105° East 250 288 10,900 -120 Level Toronto Center
11:17PM 43.2167 -76.8167 103° East 250 288 10,700 -840 Descending Toronto Center
11:18PM 43.2167 -76.7333 90° East 260 299 9,300 -1,620 Descending Toronto Center
11:20PM 43.2503 -76.6061 70° East 284 327 6,800 -1,680 Descending Cleveland Center
11:21PM 43.2203 -76.5381 121° Southeast 240 276 5,200 -1,560 Descending Cleveland Center
11:22PM 43.1800 -76.4939 141° Southeast 197 227 3,700 -1,440 Descending Cleveland Center
11:23PM 43.1453 -76.4461 135° Southeast 187 215 2,400 -660 Descending Cleveland Center
11:24PM 43.1175 -76.4069 134° Southeast 170 196 2,400  Level Cleveland Center
11:25PM 43.1025 -76.3600 114° Southeast 162 186 2,400 60 Level Cleveland Center
11:26PM 43.1033 -76.3092 89° East 167 192 2,600  Climbing Boston Center
11:26PM 43.1025 -76.2892 93° East 154 177 2,400 -120 Descending Boston Center
11:27PM 43.1044 -76.2536 86° East 157 181 2,500 -420 Climbing Boston Center
11:27PM 43.1033 -76.2342 94° East 145 167 2,000 -840 Descending Boston Center
11:28PM 43.1061 -76.1908 85° East 146 168 1,700 -720 Descending Boston Center
11:28PM 43.1056 -76.1822 95° East 130 150 1,300 -780 Descending Boston Center
11:29PM 43.1078 -76.1433 86° East 135 155 1,000 -360 Descending Boston Center
11:30PM 43.1094 -76.1006 87° East 132 152 700 -300 Descending Boston Center